Time;durP1;ratioP1;P1;durP2;ratioP2;P2;SDS_P1;SDS_P2;PMS_P1;PMS_P2;Temp;Humidity;BMP_temperature;BMP_pressure;BME280_temperature;BME280_humidity;BME280_pressure;Samples;Min_cycle;Max_cycle;Signal;HPM_P1;HPM_P2
2024/02/16 00:00:12;;;;;;;23.38;9.07;;;;;;;8.25;100.00;99846.78;5008468;28;20054;-61
2024/02/16 00:02:42;;;;;;;19.50;7.78;;;;;;;8.24;100.00;99849.88;5007240;28;20439;-62
2024/02/16 00:05:12;;;;;;;16.88;7.45;;;;;;;8.23;100.00;99843.59;5008447;28;20050;-62
2024/02/16 00:07:40;;;;;;;10.57;6.32;;;;;;;8.24;100.00;99847.13;5008489;28;20046;-63
2024/02/16 00:10:09;;;;;;;13.68;5.50;;;;;;;8.20;100.00;99841.53;5007800;28;20511;-62
2024/02/16 00:12:38;;;;;;;16.25;7.25;;;;;;;8.21;100.00;99856.09;5008105;28;20055;-62
2024/02/16 00:15:06;;;;;;;17.13;5.95;;;;;;;8.21;100.00;99847.81;5008028;28;20061;-62
2024/02/16 00:17:33;;;;;;;11.93;5.07;;;;;;;8.18;100.00;99856.81;5008398;28;20038;-61
2024/02/16 00:20:01;;;;;;;11.70;4.72;;;;;;;8.16;100.00;99853.59;5008163;28;20046;-62
2024/02/16 00:22:28;;;;;;;16.40;4.35;;;;;;;8.14;100.00;99844.88;5008264;28;20491;-61
2024/02/16 00:24:56;;;;;;;13.38;4.78;;;;;;;8.10;100.00;99864.06;5008346;28;20625;-61
2024/02/16 00:27:23;;;;;;;12.57;4.53;;;;;;;8.12;100.00;99863.72;5008027;28;20057;-61
2024/02/16 00:29:51;;;;;;;8.18;4.82;;;;;;;8.16;100.00;99864.59;5008260;28;20045;-62
2024/02/16 00:32:19;;;;;;;14.98;4.93;;;;;;;8.20;100.00;99863.56;5007492;28;20053;-60
2024/02/16 00:34:46;;;;;;;11.40;5.90;;;;;;;8.23;100.00;99860.13;5008037;28;20112;-62
2024/02/16 00:37:14;;;;;;;15.90;5.95;;;;;;;8.26;100.00;99864.13;5008230;28;20045;-62
2024/02/16 00:39:41;;;;;;;15.10;5.75;;;;;;;8.29;100.00;99864.25;5007024;28;20054;-62
2024/02/16 00:42:09;;;;;;;14.55;5.53;;;;;;;8.30;100.00;99865.06;5004619;28;20057;-62
2024/02/16 00:44:37;;;;;;;16.00;6.38;;;;;;;8.30;100.00;99865.06;5007751;28;20046;-63
2024/02/16 00:47:09;;;;;;;19.88;7.85;;;;;;;8.31;100.00;99877.69;5005066;28;20048;-63
2024/02/16 00:49:36;;;;;;;16.23;4.90;;;;;;;8.28;100.00;99870.13;4987677;28;20037;-62
2024/02/16 00:52:04;;;;;;;20.70;5.45;;;;;;;8.28;100.00;99875.63;5006189;28;20050;-62
2024/02/16 00:54:32;;;;;;;19.63;5.03;;;;;;;8.28;100.00;99878.41;5007336;28;20065;-62
2024/02/16 00:57:02;;;;;;;15.23;4.78;;;;;;;8.28;100.00;99879.22;5007248;28;20046;-62
2024/02/16 00:59:30;;;;;;;16.17;4.68;;;;;;;8.28;100.00;99893.00;5007309;28;20042;-62
2024/02/16 01:01:57;;;;;;;12.02;4.20;;;;;;;8.28;100.00;99879.22;5007449;28;20306;-61
2024/02/16 01:04:25;;;;;;;11.85;4.80;;;;;;;8.29;100.00;99891.00;5006894;28;20049;-61
2024/02/16 01:06:52;;;;;;;15.82;4.72;;;;;;;8.32;100.00;99882.84;5007248;28;20057;-61
2024/02/16 01:09:19;;;;;;;12.57;4.50;;;;;;;8.35;100.00;99889.63;4992919;28;20415;-61
2024/02/16 01:11:47;;;;;;;16.45;3.85;;;;;;;8.34;100.00;99886.06;5007480;28;20046;-61
2024/02/16 01:14:15;;;;;;;15.23;4.45;;;;;;;8.33;100.00;99886.41;5007132;28;20496;-61
2024/02/16 01:16:42;;;;;;;14.95;4.22;;;;;;;8.30;100.00;99898.16;5006588;28;20055;-61
2024/02/16 01:19:09;;;;;;;11.82;3.92;;;;;;;8.27;100.00;99888.63;5006807;28;20042;-61
2024/02/16 01:21:37;;;;;;;9.57;3.83;;;;;;;8.25;100.00;99890.09;5007313;28;20077;-61
2024/02/16 01:24:06;;;;;;;14.63;3.70;;;;;;;8.22;100.00;99896.31;5007213;28;20423;-62
2024/02/16 01:26:33;;;;;;;10.45;4.03;;;;;;;8.19;100.00;99903.31;5006776;28;20049;-61
2024/02/16 01:29:02;;;;;;;12.13;4.22;;;;;;;8.16;100.00;99886.66;5007213;28;20046;-61
2024/02/16 01:31:29;;;;;;;10.82;3.60;;;;;;;8.15;100.00;99901.63;5007830;28;20816;-61
2024/02/16 01:33:57;;;;;;;8.70;2.90;;;;;;;8.17;100.00;99893.78;5006806;28;20049;-62
2024/02/16 01:36:24;;;;;;;8.48;3.22;;;;;;;8.16;100.00;99898.50;5006745;28;20072;-61
2024/02/16 01:38:52;;;;;;;10.95;3.25;;;;;;;8.15;100.00;99896.91;5002451;28;20046;-61
2024/02/16 01:41:19;;;;;;;17.55;3.85;;;;;;;8.14;100.00;99895.31;5005964;28;20526;-62
2024/02/16 01:43:46;;;;;;;8.43;2.95;;;;;;;8.11;100.00;99903.47;5007022;28;20049;-62
2024/02/16 01:46:14;;;;;;;12.32;3.88;;;;;;;8.07;100.00;99895.09;5006770;28;20046;-62
2024/02/16 01:48:41;;;;;;;18.50;3.83;;;;;;;8.02;100.00;99898.09;5000238;28;20053;-61
2024/02/16 01:51:10;;;;;;;10.93;3.00;;;;;;;8.03;100.00;99901.63;5006362;28;20522;-61
2024/02/16 01:53:39;;;;;;;13.95;3.95;;;;;;;8.02;100.00;99897.28;5006464;28;20042;-62
2024/02/16 01:56:07;;;;;;;6.88;3.00;;;;;;;7.97;100.00;99896.38;5003981;28;20087;-61
2024/02/16 01:58:34;;;;;;;9.18;2.92;;;;;;;7.96;100.00;99893.97;5006412;28;20161;-61
2024/02/16 02:01:02;;;;;;;11.32;2.97;;;;;;;7.95;100.00;99893.16;5005475;28;20041;-61
2024/02/16 02:03:30;;;;;;;10.93;2.60;;;;;;;7.94;100.00;99894.31;5006631;28;20149;-61
2024/02/16 02:05:57;;;;;;;10.38;2.85;;;;;;;7.96;100.00;99899.50;5005915;28;20050;-61
2024/02/16 02:08:26;;;;;;;10.25;2.83;;;;;;;7.95;100.00;99904.19;5021492;28;20053;-61
2024/02/16 02:10:54;;;;;;;14.65;2.88;;;;;;;7.98;100.00;99897.19;4993636;28;20050;-62
2024/02/16 02:13:24;;;;;;;6.03;2.00;;;;;;;8.02;100.00;99905.56;4999798;28;20054;-61
2024/02/16 02:15:54;;;;;;;7.15;2.08;;;;;;;8.05;100.00;99902.13;5006817;28;20077;-61
2024/02/16 02:18:22;;;;;;;12.75;2.00;;;;;;;8.07;100.00;99902.56;5005622;28;20061;-61
2024/02/16 02:20:49;;;;;;;13.02;1.92;;;;;;;8.09;100.00;99905.75;5006371;28;20057;-61
2024/02/16 02:23:16;;;;;;;5.43;1.98;;;;;;;8.11;100.00;99906.22;5005443;28;20050;-60
2024/02/16 02:25:44;;;;;;;7.32;1.30;;;;;;;8.13;100.00;99904.72;5006891;28;20053;-61
2024/02/16 02:28:11;;;;;;;5.25;1.80;;;;;;;8.13;100.00;99903.94;5010029;28;20100;-61
2024/02/16 02:30:38;;;;;;;3.55;1.13;;;;;;;8.13;100.00;99909.44;5010423;28;20053;-61
2024/02/16 02:33:06;;;;;;;8.25;1.30;;;;;;;8.13;100.00;99910.22;5010554;28;20061;-62
2024/02/16 02:35:33;;;;;;;19.58;2.53;;;;;;;8.11;100.00;99907.03;5003533;28;20054;-61
2024/02/16 02:38:01;;;;;;;7.50;1.25;;;;;;;8.09;100.00;99908.53;5006438;28;20041;-61
2024/02/16 02:40:28;;;;;;;5.63;1.25;;;;;;;8.09;100.00;99911.28;5010205;28;20038;-61
2024/02/16 02:42:56;;;;;;;11.85;1.42;;;;;;;8.07;100.00;99911.63;5010042;28;20543;-61
2024/02/16 02:45:23;;;;;;;9.30;2.53;;;;;;;8.06;100.00;99914.72;4992443;28;20527;-62
2024/02/16 02:47:51;;;;;;;3.13;1.15;;;;;;;8.06;100.00;99917.47;5004462;28;20049;-61
2024/02/16 02:50:19;;;;;;;6.18;1.10;;;;;;;8.06;100.00;99917.47;5009450;28;20049;-62
2024/02/16 02:52:46;;;;;;;3.28;1.33;;;;;;;8.07;100.00;99921.84;5010106;28;20052;-62
2024/02/16 02:55:14;;;;;;;6.13;1.45;;;;;;;8.09;100.00;99919.56;5010142;28;20045;-61
2024/02/16 02:57:41;;;;;;;9.15;1.30;;;;;;;8.11;100.00;99915.28;5009565;28;20042;-61
2024/02/16 03:00:10;;;;;;;5.60;1.30;;;;;;;8.15;100.00;99918.16;5009418;28;20042;-62
2024/02/16 03:02:43;;;;;;;6.38;1.15;;;;;;;8.18;100.00;99922.97;5068811;23;20097;-61
2024/02/16 03:05:11;;;;;;;4.50;0.85;;;;;;;8.21;100.00;99922.25;4989832;28;20054;-61
2024/02/16 03:07:38;;;;;;;9.13;2.13;;;;;;;8.25;100.00;99928.69;4989238;28;20134;-61
2024/02/16 03:10:09;;;;;;;3.17;1.08;;;;;;;8.28;100.00;99930.78;4971854;28;20463;-60
2024/02/16 03:12:37;;;;;;;4.15;0.90;;;;;;;8.29;100.00;99930.44;4989770;28;20045;-61
2024/02/16 03:15:05;;;;;;;4.50;1.13;;;;;;;8.33;100.00;99928.59;4972484;28;20047;-61
2024/02/16 03:17:32;;;;;;;15.95;3.60;;;;;;;8.37;100.00;99942.47;4989735;28;20045;-61
2024/02/16 03:19:59;;;;;;;5.88;1.05;;;;;;;8.38;100.00;99941.31;4989282;28;20058;-61
2024/02/16 03:22:27;;;;;;;3.30;0.95;;;;;;;8.41;100.00;99943.38;4989614;28;20058;-61
2024/02/16 03:24:55;;;;;;;4.85;1.85;;;;;;;8.43;100.00;99941.88;4989589;28;20054;-61
2024/02/16 03:27:23;;;;;;;3.92;1.20;;;;;;;8.45;100.00;99944.28;4989547;28;20050;-61
2024/02/16 03:29:50;;;;;;;5.38;1.20;;;;;;;8.46;100.00;99941.19;4989536;28;20046;-61
2024/02/16 03:32:18;;;;;;;7.28;1.27;;;;;;;8.47;100.00;99942.00;4988890;28;20467;-61
2024/02/16 03:34:45;;;;;;;3.90;1.40;;;;;;;8.49;100.00;99946.00;4989364;28;20573;-61
2024/02/16 03:37:12;;;;;;;3.40;1.23;;;;;;;8.49;100.00;99943.25;4989335;28;20586;-60
2024/02/16 03:39:40;;;;;;;8.52;1.33;;;;;;;8.50;100.00;99955.06;4989340;28;20050;-61
2024/02/16 03:42:07;;;;;;;3.20;0.68;;;;;;;8.51;100.00;99957.50;4989447;28;20490;-61
2024/02/16 03:44:34;;;;;;;3.83;1.20;;;;;;;8.53;100.00;99962.63;4988660;28;20109;-61
2024/02/16 03:47:02;;;;;;;2.45;0.85;;;;;;;8.54;100.00;99955.97;4989312;28;20061;-61
2024/02/16 03:49:29;;;;;;;12.55;1.95;;;;;;;8.57;100.00;99966.31;4988978;28;20061;-61
2024/02/16 03:51:57;;;;;;;7.65;2.65;;;;;;;8.57;100.00;99967.13;4989104;28;20050;-59
2024/02/16 03:54:24;;;;;;;7.32;2.30;;;;;;;8.58;100.00;99971.47;4988765;28;20061;-56
2024/02/16 03:56:55;;;;;;;5.85;0.88;;;;;;;8.60;100.00;99970.34;4988727;28;20050;-56
2024/02/16 03:59:23;;;;;;;4.72;0.98;;;;;;;8.61;100.00;99974.69;4988066;28;20074;-58
2024/02/16 04:01:52;;;;;;;4.97;1.30;;;;;;;8.61;100.00;99958.13;4988900;28;20050;-59
2024/02/16 04:04:20;;;;;;;2.15;1.10;;;;;;;8.61;100.00;99969.16;4989002;28;20050;-57
2024/02/16 04:06:48;;;;;;;4.13;0.98;;;;;;;8.61;100.00;99975.47;4971195;28;20050;-61
2024/02/16 04:09:16;;;;;;;3.92;1.10;;;;;;;8.62;100.00;99974.34;4987832;28;20050;-59
2024/02/16 04:11:45;;;;;;;3.03;1.02;;;;;;;8.64;100.00;99976.75;4971234;28;20492;-55
2024/02/16 04:14:13;;;;;;;3.25;0.75;;;;;;;8.63;100.00;99986.97;4988571;28;20053;-56
2024/02/16 04:16:45;;;;;;;6.22;1.20;;;;;;;8.64;100.00;99985.81;4988660;28;20058;-59
2024/02/16 04:19:13;;;;;;;4.97;2.78;;;;;;;8.63;100.00;99978.69;4988197;28;20504;-59
2024/02/16 04:21:40;;;;;;;5.70;1.60;;;;;;;8.63;100.00;99969.63;4988398;28;20173;-58
2024/02/16 04:24:08;;;;;;;3.45;1.10;;;;;;;8.64;100.00;99985.00;4988329;28;20060;-59
2024/02/16 04:26:35;;;;;;;3.50;1.20;;;;;;;8.64;100.00;99983.06;4988520;28;20046;-59
2024/02/16 04:29:04;;;;;;;3.90;1.00;;;;;;;8.64;100.00;99980.31;4988772;28;20054;-59
2024/02/16 04:31:31;;;;;;;7.18;1.67;;;;;;;8.64;100.00;99991.34;4989184;28;20420;-59
2024/02/16 04:33:59;;;;;;;7.60;0.85;;;;;;;8.63;100.00;99992.47;4988090;28;20054;-60
2024/02/16 04:36:28;;;;;;;2.33;0.98;;;;;;;8.62;100.00;99987.34;4988360;28;20046;-61
2024/02/16 04:38:55;;;;;;;3.53;1.05;;;;;;;8.61;100.00;99997.56;4986772;28;20677;-59
2024/02/16 04:41:23;;;;;;;4.43;0.95;;;;;;;8.59;100.00;99999.88;4987700;28;20050;-59
2024/02/16 04:43:50;;;;;;;4.65;1.20;;;;;;;8.59;100.00;99999.88;4987850;28;20046;-59
2024/02/16 04:46:18;;;;;;;2.47;1.00;;;;;;;8.57;100.00;99996.66;4988347;28;20053;-59
2024/02/16 04:48:45;;;;;;;3.80;0.95;;;;;;;8.57;100.00;100002.19;4987430;28;20077;-57
2024/02/16 04:51:13;;;;;;;4.50;1.13;;;;;;;8.54;100.00;99994.59;4987483;28;20054;-57
2024/02/16 04:53:40;;;;;;;8.60;1.25;;;;;;;8.53;100.00;99998.50;4988246;28;20050;-58
2024/02/16 04:56:08;;;;;;;5.15;1.05;;;;;;;8.51;100.00;99998.06;4988017;28;20058;-59
2024/02/16 04:58:40;;;;;;;3.40;0.93;;;;;;;8.49;100.00;99997.59;4987751;28;20065;-58
2024/02/16 05:01:07;;;;;;;0.88;0.70;;;;;;;8.50;100.00;100001.94;4987620;28;20069;-59
2024/02/16 05:03:35;;;;;;;2.35;1.00;;;;;;;8.49;100.00;100011.41;4988303;28;20051;-59
2024/02/16 05:06:03;;;;;;;0.85;0.60;;;;;;;8.49;100.00;100011.41;4987140;28;20062;-57
2024/02/16 05:08:30;;;;;;;7.43;1.33;;;;;;;8.50;100.00;100018.50;4970314;28;20054;-58
2024/02/16 05:11:01;;;;;;;3.05;0.80;;;;;;;8.49;100.00;100022.44;4970581;28;20054;-59
2024/02/16 05:13:28;;;;;;;6.28;0.82;;;;;;;8.48;100.00;100021.63;4987526;28;20058;-59
2024/02/16 05:15:56;;;;;;;3.05;1.33;;;;;;;8.47;100.00;100019.22;4987503;28;20065;-58
2024/02/16 05:18:23;;;;;;;8.73;0.98;;;;;;;8.43;100.00;100019.13;4987296;28;20460;-59
2024/02/16 05:20:50;;;;;;;3.22;0.98;;;;;;;8.42;100.00;100027.72;4986828;28;20065;-59
2024/02/16 05:23:18;;;;;;;2.13;0.77;;;;;;;8.40;100.00;100030.03;4987083;28;20062;-61
2024/02/16 05:25:45;;;;;;;1.75;0.88;;;;;;;8.38;100.00;100032.34;4987458;28;20508;-59
2024/02/16 05:28:13;;;;;;;3.38;0.82;;;;;;;8.36;100.00;100035.47;4987305;28;20054;-59
2024/02/16 05:30:41;;;;;;;2.97;0.90;;;;;;;8.36;100.00;100035.47;4987244;28;20504;-59
2024/02/16 05:33:08;;;;;;;2.92;1.52;;;;;;;8.36;100.00;100040.16;4986495;28;20532;-60
2024/02/16 05:35:39;;;;;;;1.92;1.10;;;;;;;8.38;100.00;100048.88;4987397;28;20049;-59
2024/02/16 05:38:10;;;;;;;5.53;1.95;;;;;;;8.38;100.00;100048.88;4986838;28;20608;-59
2024/02/16 05:40:45;;;;;;;2.58;0.93;;;;;;;8.41;100.00;100059.22;4987003;28;20061;-61
2024/02/16 05:43:13;;;;;;;6.38;1.35;;;;;;;8.42;100.00;100071.84;4986832;28;20588;-61
2024/02/16 05:45:41;;;;;;;4.82;1.08;;;;;;;8.43;100.00;100062.44;4987126;28;20043;-60
2024/02/16 05:48:10;;;;;;;3.72;1.30;;;;;;;8.43;100.00;100070.72;4986596;28;20609;-58
2024/02/16 05:50:38;;;;;;;4.50;1.08;;;;;;;8.43;100.00;100067.97;4970049;28;20050;-58
2024/02/16 05:53:06;;;;;;;5.53;1.48;;;;;;;8.41;100.00;100082.09;4973535;28;20599;-59
2024/02/16 05:55:34;;;;;;;7.72;1.23;;;;;;;8.40;100.00;100080.50;4986964;28;20054;-58
2024/02/16 05:58:01;;;;;;;7.45;1.33;;;;;;;8.38;100.00;100085.56;4974894;28;20130;-60
2024/02/16 06:00:28;;;;;;;4.32;0.88;;;;;;;8.40;100.00;100082.44;4986523;28;20053;-58
2024/02/16 06:02:56;;;;;;;4.65;1.02;;;;;;;8.39;100.00;100083.59;4986903;28;20050;-59
2024/02/16 06:05:23;;;;;;;3.05;0.88;;;;;;;8.40;100.00;100079.69;4986342;28;20464;-60
2024/02/16 06:07:50;;;;;;;1.27;0.60;;;;;;;8.41;100.00;100087.63;4987086;28;20047;-59
2024/02/16 06:10:18;;;;;;;1.60;1.10;;;;;;;8.40;100.00;100091.53;4986589;28;20054;-57
2024/02/16 06:12:45;;;;;;;1.75;0.80;;;;;;;8.42;100.00;100089.22;4987326;28;20118;-59
2024/02/16 06:15:14;;;;;;;4.20;0.98;;;;;;;8.44;100.00;100091.63;4986480;28;20050;-59
2024/02/16 06:17:42;;;;;;;6.25;1.10;;;;;;;8.46;100.00;100095.66;4986183;28;20056;-59
2024/02/16 06:20:11;;;;;;;4.85;0.70;;;;;;;8.46;100.00;100087.38;4986662;28;20062;-58
2024/02/16 06:22:38;;;;;;;1.60;0.80;;;;;;;8.44;100.00;100102.69;4986866;28;20448;-59
2024/02/16 06:25:06;;;;;;;2.92;1.67;;;;;;;8.43;100.00;100101.06;4986577;28;20863;-59
2024/02/16 06:27:33;;;;;;;2.13;1.15;;;;;;;8.41;100.00;100101.41;4986354;28;20058;-59
2024/02/16 06:30:02;;;;;;;5.18;1.15;;;;;;;8.41;100.00;100109.69;4986031;28;20500;-59
2024/02/16 06:32:31;;;;;;;3.20;0.80;;;;;;;8.39;100.00;100111.19;4986651;28;20058;-59
2024/02/16 06:34:58;;;;;;;2.05;0.70;;;;;;;8.38;100.00;100106.81;4986603;28;20054;-60
2024/02/16 06:37:25;;;;;;;2.08;1.17;;;;;;;8.35;100.00;100111.06;4986428;28;20057;-60
2024/02/16 06:39:53;;;;;;;2.97;0.90;;;;;;;8.33;100.00;100112.56;4986251;28;20597;-60
2024/02/16 06:42:20;;;;;;;3.08;1.05;;;;;;;8.30;100.00;100118.75;4986337;28;20061;-61
2024/02/16 06:44:47;;;;;;;4.25;0.93;;;;;;;8.31;100.00;100120.38;4986602;28;20042;-61
2024/02/16 06:47:15;;;;;;;2.30;0.80;;;;;;;8.32;100.00;100124.72;4986636;28;20535;-59
2024/02/16 06:49:42;;;;;;;2.85;0.60;;;;;;;8.36;100.00;100120.16;4986564;28;20060;-59
2024/02/16 06:52:10;;;;;;;2.20;0.60;;;;;;;8.39;100.00;100138.78;4986636;28;20407;-59
2024/02/16 06:54:37;;;;;;;1.17;0.55;;;;;;;8.41;100.00;100137.28;4986295;28;20042;-56
2024/02/16 06:57:05;;;;;;;1.95;0.90;;;;;;;8.43;100.00;100134.97;4985989;28;20050;-56
2024/02/16 06:59:35;;;;;;;4.13;1.00;;;;;;;8.44;100.00;100125.56;4986591;28;20047;-58
2024/02/16 07:02:02;;;;;;;1.10;0.65;;;;;;;8.46;100.00;100145.31;4986203;28;20598;-59
2024/02/16 07:04:30;;;;;;;3.35;0.85;;;;;;;8.48;100.00;100142.19;4985935;28;20050;-59
2024/02/16 07:06:57;;;;;;;2.83;0.60;;;;;;;8.49;100.00;100149.34;4990105;28;20428;-60
2024/02/16 07:09:25;;;;;;;1.02;0.57;;;;;;;8.48;100.00;100150.47;4986438;28;20063;-58
2024/02/16 07:11:52;;;;;;;1.35;0.90;;;;;;;8.48;100.00;100147.72;4986566;28;20053;-55
2024/02/16 07:14:20;;;;;;;2.78;0.50;;;;;;;8.50;100.00;100150.94;4989868;28;20053;-58
2024/02/16 07:16:48;;;;;;;0.65;0.43;;;;;;;8.50;100.00;100156.44;4989324;28;20056;-57
2024/02/16 07:19:15;;;;;;;0.88;0.60;;;;;;;8.49;100.00;100154.84;4989592;28;20491;-57
2024/02/16 07:21:44;;;;;;;1.48;0.70;;;;;;;8.49;100.00;100154.84;4989940;28;20046;-59
2024/02/16 07:24:11;;;;;;;1.77;0.68;;;;;;;8.49;100.00;100160.38;4989530;28;20058;-59
2024/02/16 07:26:39;;;;;;;4.20;1.10;;;;;;;8.47;100.00;100168.97;4989586;28;20496;-58
2024/02/16 07:29:07;;;;;;;0.68;0.57;;;;;;;8.47;100.00;100168.19;4989492;28;20050;-57
2024/02/16 07:31:35;;;;;;;1.70;0.70;;;;;;;8.45;100.00;100175.97;4988875;28;20054;-59
2024/02/16 07:34:02;;;;;;;3.88;0.80;;;;;;;8.44;100.00;100179.91;4991311;28;20050;-59
2024/02/16 07:36:30;;;;;;;1.20;0.70;;;;;;;8.45;100.00;100187.03;4989455;28;20050;-57
2024/02/16 07:38:58;;;;;;;1.20;0.60;;;;;;;8.47;100.00;100184.75;4987573;28;20058;-58
2024/02/16 07:41:27;;;;;;;2.33;1.00;;;;;;;8.46;100.00;100194.16;4989169;28;20885;-58
2024/02/16 07:43:55;;;;;;;2.20;1.08;;;;;;;8.46;100.00;100194.16;4989185;28;20046;-59
2024/02/16 07:46:22;;;;;;;0.70;0.52;;;;;;;8.47;100.00;100199.31;4988246;28;20045;-60
2024/02/16 07:48:50;;;;;;;1.75;0.70;;;;;;;8.46;100.00;100208.75;4989294;28;20404;-57
2024/02/16 07:51:18;;;;;;;1.45;1.02;;;;;;;8.47;100.00;100217.84;4988550;28;20050;-59
2024/02/16 07:53:46;;;;;;;0.70;0.45;;;;;;;8.47;100.00;100215.88;4989106;28;20632;-59
2024/02/16 07:56:14;;;;;;;1.58;0.90;;;;;;;8.49;100.00;100221.88;4988679;28;20046;-59
2024/02/16 07:58:43;;;;;;;0.60;0.43;;;;;;;8.50;100.00;100225.41;4971804;28;20065;-55
2024/02/16 08:01:15;;;;;;;2.13;0.75;;;;;;;8.51;100.00;100227.03;4988847;28;20054;-57
2024/02/16 08:03:43;;;;;;;3.53;0.60;;;;;;;8.52;100.00;100225.91;4987321;28;20047;-58
2024/02/16 08:06:10;;;;;;;1.25;0.57;;;;;;;8.52;100.00;100231.41;4988772;28;20065;-56
2024/02/16 08:08:38;;;;;;;5.10;1.10;;;;;;;8.54;100.00;100229.91;4988260;28;20671;-58
2024/02/16 08:11:05;;;;;;;0.68;0.57;;;;;;;8.56;100.00;100243.34;4988242;28;20065;-59
2024/02/16 08:13:33;;;;;;;1.23;0.70;;;;;;;8.59;100.00;100242.66;4988204;28;20416;-56
2024/02/16 08:16:03;;;;;;;1.80;0.85;;;;;;;8.60;100.00;100249.81;4988810;28;20046;-59
2024/02/16 08:18:30;;;;;;;3.50;1.23;;;;;;;8.62;100.00;100246.69;4988059;28;20062;-58
2024/02/16 08:20:58;;;;;;;0.80;0.60;;;;;;;8.63;100.00;100254.63;4986702;28;20924;-56
2024/02/16 08:23:25;;;;;;;3.60;0.82;;;;;;;8.64;100.00;100261.75;4988865;28;20073;-60
2024/02/16 08:25:53;;;;;;;0.85;0.47;;;;;;;8.66;100.00;100264.97;4989741;28;20034;-58
2024/02/16 08:28:20;;;;;;;2.10;0.70;;;;;;;8.72;100.00;100273.84;4981777;28;20043;-59
2024/02/16 08:30:47;;;;;;;3.33;1.25;;;;;;;8.75;100.00;100278.66;4988999;28;20058;-58
2024/02/16 08:33:15;;;;;;;2.55;1.00;;;;;;;8.79;100.00;100280.38;4988806;28;20043;-58
2024/02/16 08:35:43;;;;;;;0.50;0.30;;;;;;;8.81;100.00;100280.06;4989069;28;20050;-58
2024/02/16 08:38:11;;;;;;;4.32;0.90;;;;;;;8.82;100.00;100279.69;4989516;28;20043;-60
2024/02/16 08:40:38;;;;;;;3.15;0.88;;;;;;;8.84;100.00;100282.91;4988794;28;20046;-59
2024/02/16 08:43:07;;;;;;;2.03;0.65;;;;;;;8.85;100.00;100290.06;4989283;28;20069;-59
2024/02/16 08:45:34;;;;;;;0.60;0.50;;;;;;;8.87;100.00;100290.50;4981049;28;20057;-60
2024/02/16 08:48:03;;;;;;;4.68;1.80;;;;;;;8.89;100.00;100290.19;4988361;28;20583;-61
2024/02/16 08:50:31;;;;;;;1.95;0.50;;;;;;;8.91;100.00;100291.44;4971755;28;20054;-58
2024/02/16 08:52:59;;;;;;;1.00;0.90;;;;;;;8.96;100.00;100301.44;4989817;28;20794;-57
2024/02/16 08:55:26;;;;;;;3.22;0.88;;;;;;;8.98;100.00;100305.47;4990106;28;20047;-58
2024/02/16 08:57:54;;;;;;;1.15;0.40;;;;;;;8.98;100.00;100311.00;4971975;28;20054;-58
2024/02/16 09:00:23;;;;;;;0.55;0.50;;;;;;;8.95;100.00;100317.19;4971593;28;20043;-58
2024/02/16 09:02:50;;;;;;;0.82;0.38;;;;;;;8.93;100.00;100327.78;4988551;28;20516;-59
2024/02/16 09:05:18;;;;;;;0.60;0.30;;;;;;;8.92;100.00;100323.41;4988981;28;20039;-60
2024/02/16 09:07:47;;;;;;;2.85;0.68;;;;;;;8.94;100.00;100329.41;4989796;28;20045;-58
2024/02/16 09:10:14;;;;;;;0.55;0.40;;;;;;;8.96;100.00;100334.56;4972306;28;20054;-58
2024/02/16 09:12:42;;;;;;;0.40;0.38;;;;;;;9.01;100.00;100343.44;4989814;28;20043;-59
2024/02/16 09:15:09;;;;;;;1.10;0.30;;;;;;;9.05;100.00;100349.88;4989693;28;20069;-59
2024/02/16 09:17:37;;;;;;;0.50;0.35;;;;;;;9.11;100.00;100356.78;4990538;28;20065;-60
2024/02/16 09:20:08;;;;;;;1.27;0.40;;;;;;;9.16;100.00;100353.78;4989241;28;20046;-60
2024/02/16 09:22:36;;;;;;;0.60;0.40;;;;;;;9.22;100.00;100357.13;4989737;28;20038;-60
2024/02/16 09:25:05;;;;;;;0.68;0.43;;;;;;;9.24;100.00;100363.09;4989214;28;20469;-61
2024/02/16 09:27:32;;;;;;;0.22;0.22;;;;;;;9.26;100.00;100360.03;4989181;28;20046;-60
2024/02/16 09:29:59;;;;;;;0.50;0.32;;;;;;;9.28;100.00;100372.34;4985984;28;20078;-60
2024/02/16 09:32:27;;;;;;;0.52;0.40;;;;;;;9.31;100.00;100381.88;4989104;28;20057;-60
2024/02/16 09:34:55;;;;;;;2.28;0.40;;;;;;;9.29;100.00;100389.72;4989930;28;20047;-60
2024/02/16 09:37:23;;;;;;;0.35;0.30;;;;;;;9.29;100.00;100381.44;4989870;28;20053;-58
2024/02/16 09:39:50;;;;;;;3.13;0.55;;;;;;;9.35;100.00;100394.66;4989948;28;20061;-60
2024/02/16 09:42:18;;;;;;;0.32;0.30;;;;;;;9.40;100.00;100397.19;4989236;28;20513;-60
2024/02/16 09:44:46;;;;;;;0.57;0.57;;;;;;;9.45;100.00;100407.22;4988555;28;20046;-61
2024/02/16 09:47:14;;;;;;;0.70;0.35;;;;;;;9.48;100.00;100415.59;4970715;28;20054;-60
2024/02/16 09:49:41;;;;;;;1.38;0.52;;;;;;;9.51;100.00;100412.16;4988504;28;20061;-60
2024/02/16 09:52:13;;;;;;;0.60;0.40;;;;;;;9.50;100.00;100420.81;4970743;28;20045;-60
2024/02/16 09:54:40;;;;;;;1.30;0.50;;;;;;;9.47;100.00;100427.81;4980143;28;20527;-60
2024/02/16 09:57:08;;;;;;;0.55;0.50;;;;;;;9.48;100.00;100423.09;4987941;28;20405;-61
2024/02/16 09:59:36;;;;;;;2.03;0.40;;;;;;;9.50;100.00;100437.38;4987417;28;20413;-60
2024/02/16 10:02:07;;;;;;;1.25;0.40;;;;;;;9.52;100.00;100446.94;4987354;28;20065;-64
2024/02/16 10:04:35;;;;;;;1.20;0.40;;;;;;;9.58;100.00;100434.47;4987981;28;20042;-60
2024/02/16 10:07:05;;;;;;;2.47;0.50;;;;;;;9.63;100.00;100441.75;4987521;28;20062;-59
2024/02/16 10:09:42;;;;;;;1.50;0.30;;;;;;;9.66;100.00;100452.13;4987360;28;20058;-61
2024/02/16 10:12:17;;;;;;;;;;;;;;;9.68;100.00;100449.81;4986639;28;20080;-60
2024/02/16 10:14:54;;;;;;;1.45;0.20;;;;;;;9.70;100.00;100453.84;4987867;28;19933;-60
2024/02/16 10:17:21;;;;;;;0.20;0.20;;;;;;;9.72;100.00;100461.78;4974930;28;20049;-60
2024/02/16 10:19:59;;;;;;;0.52;0.30;;;;;;;9.75;100.00;100475.72;4987713;28;20050;-61
2024/02/16 10:22:27;;;;;;;0.93;0.47;;;;;;;9.76;100.00;100474.59;4986955;28;20054;-60
2024/02/16 10:25:26;;;;;;;0.35;0.25;;;;;;;9.79;100.00;100484.13;4982609;28;20059;-60
2024/02/16 10:27:58;;;;;;;0.30;0.30;;;;;;;9.80;100.00;100496.78;4986989;28;20051;-61
2024/02/16 10:30:30;;;;;;;0.63;0.40;;;;;;;9.77;100.00;100498.28;4987273;28;20051;-61
2024/02/16 10:32:59;;;;;;;;;;;;;;;9.76;100.00;100495.88;4988154;28;20148;-61
2024/02/16 10:35:29;;;;;;;0.60;0.30;;;;;;;9.77;100.00;100498.28;4989794;28;19925;-61
2024/02/16 10:37:58;;;;;;;0.45;0.30;;;;;;;9.81;100.00;100498.41;4991199;28;20051;-60
2024/02/16 10:40:27;;;;;;;0.77;0.30;;;;;;;9.86;100.00;100517.53;4987135;28;20065;-60
2024/02/16 10:42:55;;;;;;;0.20;0.20;;;;;;;9.88;100.00;100509.69;4987122;28;20069;-60
2024/02/16 10:45:25;;;;;;;1.13;0.30;;;;;;;9.92;100.00;100518.94;4987283;28;20054;-62
2024/02/16 10:47:53;;;;;;;0.22;0.22;;;;;;;9.95;100.00;100515.47;4989855;28;20137;-61
2024/02/16 10:50:21;;;;;;;1.10;0.15;;;;;;;10.01;100.00;100519.59;4989378;28;20058;-61
2024/02/16 10:52:49;;;;;;;1.20;0.30;;;;;;;10.11;100.00;100513.59;4992106;28;20050;-61
2024/02/16 10:55:16;;;;;;;3.17;0.40;;;;;;;10.19;100.00;100515.44;4992340;28;20061;-60
2024/02/16 10:57:44;;;;;;;0.20;0.20;;;;;;;10.23;100.00;100529.41;4991283;28;20046;-61
2024/02/16 11:00:17;;;;;;;0.50;0.40;;;;;;;10.23;100.00;100523.88;4991806;28;20400;-61
2024/02/16 11:02:52;;;;;;;3.72;0.45;;;;;;;10.25;100.00;100541.72;4991733;28;20523;-61
2024/02/16 11:05:19;;;;;;;1.98;0.38;;;;;;;10.25;100.00;100538.97;4991681;28;20042;-61
2024/02/16 11:07:47;;;;;;;0.52;0.20;;;;;;;10.25;100.00;100541.72;4990989;28;20046;-61
2024/02/16 11:10:14;;;;;;;0.35;0.25;;;;;;;10.23;100.00;100560.66;4990467;28;20058;-61
2024/02/16 11:12:49;;;;;;;2.35;0.40;;;;;;;10.22;100.00;100564.56;4991699;28;20054;-61
2024/02/16 11:15:26;;;;;;;2.15;0.30;;;;;;;10.22;100.00;100564.56;4991959;28;20069;-60
2024/02/16 11:17:58;;;;;;;0.63;0.30;;;;;;;10.23;100.00;100568.94;4991804;28;20519;-61
2024/02/16 11:20:26;;;;;;;1.08;0.20;;;;;;;10.26;100.00;100582.09;4992534;28;20055;-61
2024/02/16 11:23:04;;;;;;;0.82;0.43;;;;;;;10.29;100.00;100575.88;4987884;28;20401;-60
2024/02/16 11:25:32;;;;;;;0.40;0.30;;;;;;;10.32;100.00;100590.97;4979317;28;20046;-61
2024/02/16 11:28:00;;;;;;;0.93;0.40;;;;;;;10.35;100.00;100591.06;4992104;28;20424;-61
2024/02/16 11:30:27;;;;;;;0.85;0.57;;;;;;;10.40;100.00;100595.56;4991511;28;20401;-60